createdAt,value
2022-10-19T00:00:20.304Z,9.75
2022-10-19T00:01:20.277Z,9.70
2022-10-19T00:02:20.314Z,9.71
2022-10-19T00:03:23.114Z,9.70
2022-10-19T00:04:20.238Z,9.67
2022-10-19T00:05:20.195Z,9.64
2022-10-19T00:06:20.339Z,9.61
2022-10-19T00:07:20.198Z,9.60
2022-10-19T00:08:20.147Z,9.58
2022-10-19T00:09:20.158Z,9.60
2022-10-19T00:10:20.130Z,9.64
2022-10-19T00:11:20.118Z,9.68
2022-10-19T00:12:20.232Z,9.70
2022-10-19T00:13:20.106Z,9.71
2022-10-19T00:14:20.069Z,9.71
2022-10-19T00:15:20.077Z,9.70
2022-10-19T00:16:20.075Z,9.70
2022-10-19T00:17:20.048Z,9.73
2022-10-19T00:18:20.152Z,9.71
2022-10-19T00:19:20.031Z,9.76
2022-10-19T00:20:19.989Z,9.76
2022-10-19T00:21:19.995Z,9.78
2022-10-19T00:22:19.971Z,9.79
2022-10-19T00:23:19.956Z,9.78
2022-10-19T00:24:20.089Z,9.79
2022-10-19T00:25:19.922Z,9.79
2022-10-19T00:26:19.922Z,9.78
2022-10-19T00:27:19.915Z,9.76
2022-10-19T00:28:19.882Z,9.79
2022-10-19T00:29:19.873Z,9.78
2022-10-19T00:30:19.976Z,9.76
2022-10-19T00:31:19.857Z,9.75
2022-10-19T00:32:19.824Z,9.70
2022-10-19T00:33:19.832Z,9.67
2022-10-19T00:34:19.817Z,9.64
2022-10-19T00:35:19.785Z,9.60
2022-10-19T00:36:19.817Z,9.53
2022-10-19T00:37:19.764Z,9.45
2022-10-19T00:38:19.759Z,9.39
2022-10-19T00:39:19.748Z,9.30
2022-10-19T00:40:19.715Z,9.23
2022-10-19T00:41:19.733Z,9.13
2022-10-19T00:42:19.806Z,9.06
2022-10-19T00:43:19.686Z,8.97
2022-10-19T00:44:19.678Z,8.90
2022-10-19T00:45:19.674Z,8.83
2022-10-19T00:46:19.639Z,8.76
2022-10-19T00:47:19.627Z,8.71
2022-10-19T00:48:19.734Z,8.66
2022-10-19T00:49:19.599Z,8.63
2022-10-19T00:50:19.594Z,8.66
2022-10-19T00:51:19.592Z,8.60
2022-10-19T00:52:19.568Z,8.55
2022-10-19T00:53:19.562Z,8.48
2022-10-19T00:54:19.640Z,8.42
2022-10-19T00:55:19.519Z,8.40
2022-10-19T00:56:19.514Z,8.36
2022-10-19T00:57:19.491Z,8.39
2022-10-19T00:58:19.494Z,8.47
2022-10-19T00:59:19.483Z,8.50
2022-10-19T01:00:19.480Z,8.54
2022-10-19T01:01:19.495Z,8.50
2022-10-19T01:02:19.422Z,8.51
2022-10-19T01:03:19.411Z,8.51
2022-10-19T01:04:19.415Z,8.51
2022-10-19T01:05:19.390Z,8.54
2022-10-19T01:06:19.505Z,8.54
2022-10-19T01:07:19.375Z,8.54
2022-10-19T01:08:19.342Z,8.51
2022-10-19T01:09:19.347Z,8.50
2022-10-19T01:10:19.323Z,8.47
2022-10-19T01:11:19.324Z,8.44
2022-10-19T01:12:19.428Z,8.35
2022-10-19T01:13:19.284Z,8.26
2022-10-19T01:14:19.290Z,8.18
2022-10-19T01:15:19.273Z,8.12
2022-10-19T01:16:19.235Z,8.08
2022-10-19T01:17:19.235Z,8.03
2022-10-19T01:18:19.330Z,8.02
2022-10-19T01:19:19.227Z,8.00
2022-10-19T01:20:19.186Z,7.99
2022-10-19T01:21:19.200Z,7.96
2022-10-19T01:22:19.158Z,7.96
2022-10-19T01:23:19.146Z,7.99
2022-10-19T01:24:19.261Z,8.02
2022-10-19T01:25:19.118Z,8.03
2022-10-19T01:26:19.131Z,8.03
2022-10-19T01:27:19.103Z,7.99
2022-10-19T01:28:19.089Z,7.94
2022-10-19T01:29:19.091Z,7.94
2022-10-19T01:30:19.088Z,7.93
2022-10-19T01:31:19.049Z,7.89
2022-10-19T01:32:19.056Z,7.82
2022-10-19T01:33:19.024Z,7.74
2022-10-19T01:34:18.991Z,7.66
2022-10-19T01:35:18.983Z,7.59
2022-10-19T01:36:19.093Z,7.52
2022-10-19T01:37:18.971Z,7.52
2022-10-19T01:38:18.953Z,7.53
2022-10-19T01:39:18.944Z,7.58
2022-10-19T01:40:18.913Z,7.60
2022-10-19T01:41:18.917Z,7.63
2022-10-19T01:42:19.003Z,7.63
2022-10-19T01:43:18.883Z,7.58
2022-10-19T01:44:18.880Z,7.56
2022-10-19T01:45:18.850Z,7.52
2022-10-19T01:46:18.851Z,7.47
2022-10-19T01:47:18.834Z,7.41
2022-10-19T01:48:18.834Z,7.38
2022-10-19T01:49:18.793Z,7.40
2022-10-19T01:50:18.788Z,7.42
2022-10-19T01:51:18.778Z,7.49
2022-10-19T01:52:18.763Z,7.50
2022-10-19T01:53:18.748Z,7.53
2022-10-19T01:54:22.704Z,7.52
2022-10-19T01:55:18.716Z,7.50
2022-10-19T01:56:18.708Z,7.44
2022-10-19T01:57:18.685Z,7.37
2022-10-19T01:58:18.689Z,7.34
2022-10-19T01:59:18.690Z,7.29
2022-10-19T02:00:18.675Z,7.22
2022-10-19T02:01:18.650Z,7.15
2022-10-19T02:02:18.616Z,7.01
2022-10-19T02:03:18.600Z,6.86
2022-10-19T02:04:18.606Z,6.77
2022-10-19T02:05:18.578Z,6.71
2022-10-19T02:06:18.689Z,6.68
2022-10-19T02:07:18.561Z,6.66
2022-10-19T02:08:18.530Z,6.71
2022-10-19T02:09:18.543Z,6.80
2022-10-19T02:10:18.505Z,6.84
2022-10-19T02:11:18.491Z,6.86
2022-10-19T02:12:18.523Z,6.86
2022-10-19T02:13:18.473Z,6.87
2022-10-19T02:14:18.464Z,6.89
2022-10-19T02:15:18.457Z,6.91
2022-10-19T02:16:18.420Z,6.91
2022-10-19T02:17:18.424Z,6.97
2022-10-19T02:18:18.429Z,7.04
2022-10-19T02:19:18.467Z,7.07
2022-10-19T02:20:18.386Z,7.09
2022-10-19T02:21:18.375Z,7.15
2022-10-19T02:22:18.342Z,7.17
2022-10-19T02:23:18.343Z,7.22
2022-10-19T02:24:18.367Z,7.27
2022-10-19T02:25:18.303Z,7.32
2022-10-19T02:26:18.297Z,7.37
2022-10-19T02:27:18.287Z,7.41
2022-10-19T02:28:18.315Z,7.47
2022-10-19T02:29:18.276Z,7.53
2022-10-19T02:30:18.345Z,7.58
2022-10-19T02:31:18.224Z,7.62
2022-10-19T02:32:18.229Z,7.69
2022-10-19T02:33:18.204Z,7.74
2022-10-19T02:34:18.190Z,7.78
2022-10-19T02:35:18.187Z,7.82
2022-10-19T02:36:18.285Z,7.85
2022-10-19T02:37:20.938Z,7.90
2022-10-19T02:38:19.141Z,7.94
2022-10-19T02:39:18.128Z,7.97
2022-10-19T02:40:18.097Z,7.99
2022-10-19T02:41:18.115Z,8.02
2022-10-19T02:42:18.179Z,8.07
2022-10-19T02:43:18.067Z,8.10
2022-10-19T02:44:18.053Z,8.12
2022-10-19T02:45:18.039Z,8.17
2022-10-19T02:46:18.049Z,8.17
2022-10-19T02:47:18.033Z,8.21
2022-10-19T02:48:18.109Z,8.22
2022-10-19T02:49:17.997Z,8.25
2022-10-19T02:50:17.970Z,8.26
2022-10-19T02:51:17.959Z,8.30
2022-10-19T02:52:17.955Z,8.35
2022-10-19T02:53:17.942Z,8.35
2022-10-19T02:54:17.930Z,8.33
2022-10-19T02:55:17.910Z,8.30
2022-10-19T02:56:17.895Z,8.29
2022-10-19T02:57:17.871Z,8.28
2022-10-19T02:58:17.865Z,8.30
2022-10-19T02:59:17.856Z,8.35
2022-10-19T03:00:17.942Z,8.35
2022-10-19T03:01:17.882Z,8.35
2022-10-19T03:02:17.803Z,8.36
2022-10-19T03:03:17.784Z,8.37
2022-10-19T03:04:17.785Z,8.39
2022-10-19T03:05:17.765Z,8.39
2022-10-19T03:06:17.875Z,8.40
2022-10-19T03:07:17.747Z,8.40
2022-10-19T03:08:17.719Z,8.40
2022-10-19T03:09:17.717Z,8.44
2022-10-19T03:10:17.694Z,8.42
2022-10-19T03:11:17.675Z,8.45
2022-10-19T03:12:17.699Z,8.47
2022-10-19T03:13:17.646Z,8.47
2022-10-19T03:14:17.657Z,8.50
2022-10-19T03:15:17.631Z,8.51
2022-10-19T03:16:17.606Z,8.53
2022-10-19T03:17:17.602Z,8.55
2022-10-19T03:18:17.617Z,8.58
2022-10-19T03:19:17.569Z,8.63
2022-10-19T03:20:17.571Z,8.66
2022-10-19T03:21:17.539Z,8.69
2022-10-19T03:22:17.542Z,8.69
2022-10-19T03:23:17.523Z,8.71
2022-10-19T03:24:17.619Z,8.72
2022-10-19T03:25:17.489Z,8.73
2022-10-19T03:26:17.492Z,8.75
2022-10-19T03:27:17.471Z,8.76
2022-10-19T03:28:17.448Z,8.76
2022-10-19T03:29:17.443Z,8.76
2022-10-19T03:30:17.456Z,8.76
2022-10-19T03:31:17.402Z,8.78
2022-10-19T03:32:17.407Z,8.79
2022-10-19T03:33:17.387Z,8.79
2022-10-19T03:34:17.395Z,8.81
2022-10-19T03:35:17.362Z,8.83
2022-10-19T03:36:17.451Z,8.84
2022-10-19T03:37:17.336Z,8.86
2022-10-19T03:38:17.314Z,8.86
2022-10-19T03:39:17.386Z,8.87
2022-10-19T03:40:17.297Z,8.90
2022-10-19T03:41:17.282Z,8.91
2022-10-19T03:42:17.392Z,8.93
2022-10-19T03:43:17.241Z,8.94
2022-10-19T03:44:17.256Z,8.97
2022-10-19T03:45:17.214Z,8.97
2022-10-19T03:46:17.226Z,8.99
2022-10-19T03:47:17.198Z,8.99
2022-10-19T03:48:17.238Z,9.04
2022-10-19T03:49:17.171Z,9.05
2022-10-19T03:50:17.155Z,9.06
2022-10-19T03:51:17.128Z,9.10
2022-10-19T03:52:17.141Z,9.10
2022-10-19T03:53:17.106Z,9.10
2022-10-19T03:54:17.143Z,9.12
2022-10-19T03:55:17.102Z,9.12
2022-10-19T03:56:17.071Z,9.10
2022-10-19T03:57:17.052Z,9.10
2022-10-19T03:58:17.060Z,9.10
2022-10-19T03:59:17.043Z,9.13
2022-10-19T04:00:17.038Z,9.12
2022-10-19T04:01:17.079Z,9.15
2022-10-19T04:02:16.988Z,9.16
2022-10-19T04:03:16.969Z,9.18
2022-10-19T04:04:16.974Z,9.16
2022-10-19T04:05:16.949Z,9.20
2022-10-19T04:06:19.700Z,9.18
2022-10-19T04:07:18.031Z,9.23
2022-10-19T04:08:16.912Z,9.23
2022-10-19T04:09:16.906Z,9.23
2022-10-19T04:10:16.908Z,9.21
2022-10-19T04:11:16.864Z,9.24
2022-10-19T04:12:16.895Z,9.27
2022-10-19T04:13:16.833Z,9.27
2022-10-19T04:14:26.748Z,9.27
2022-10-19T04:15:17.824Z,9.27
2022-10-19T04:16:16.792Z,9.28
2022-10-19T04:17:16.797Z,9.28
2022-10-19T04:18:16.883Z,9.27
2022-10-19T04:19:16.761Z,9.30
2022-10-19T04:20:16.757Z,9.30
2022-10-19T04:21:16.746Z,9.30
2022-10-19T04:22:16.746Z,9.30
2022-10-19T04:24:16.795Z,9.32
2022-10-19T04:25:16.680Z,9.38
2022-10-19T04:26:16.676Z,9.39
2022-10-19T04:27:16.647Z,9.40
2022-10-19T04:28:16.661Z,9.40
2022-10-19T04:29:16.649Z,9.43
2022-10-19T04:30:16.639Z,9.43
2022-10-19T04:31:16.586Z,9.43
2022-10-19T04:32:16.591Z,9.43
2022-10-19T04:33:16.580Z,9.42
2022-10-19T04:34:16.576Z,9.42
2022-10-19T04:35:16.550Z,9.42
2022-10-19T04:36:16.642Z,9.42
2022-10-19T04:37:16.520Z,9.45
2022-10-19T04:38:16.519Z,9.42
2022-10-19T04:39:16.489Z,9.43
2022-10-19T04:40:16.483Z,9.46
2022-10-19T04:41:16.471Z,9.46
2022-10-19T04:42:16.485Z,9.48
2022-10-19T04:43:16.435Z,9.48
2022-10-19T04:44:16.464Z,9.49
2022-10-19T04:45:16.400Z,9.48
2022-10-19T04:46:16.418Z,9.48
2022-10-19T04:47:16.389Z,9.48
2022-10-19T04:48:16.402Z,9.49
2022-10-19T04:49:19.434Z,9.48
2022-10-19T04:50:16.339Z,9.48
2022-10-19T04:51:16.322Z,9.46
2022-10-19T04:52:16.327Z,9.45
2022-10-19T04:53:16.316Z,9.43
2022-10-19T04:54:16.329Z,9.45
2022-10-19T04:55:16.277Z,9.46
2022-10-19T04:56:16.253Z,9.48
2022-10-19T04:57:16.248Z,9.48
2022-10-19T04:58:27.828Z,9.49
2022-10-19T05:02:49.259Z,9.52
2022-10-19T05:03:49.247Z,9.52
2022-10-19T05:04:49.217Z,9.52
2022-10-19T05:05:49.318Z,9.53
2022-10-19T05:06:49.180Z,9.53
2022-10-19T05:07:49.176Z,9.57
2022-10-19T05:08:49.157Z,9.58
2022-10-19T05:09:49.136Z,9.60
2022-10-19T05:10:49.149Z,9.60
2022-10-19T05:11:49.219Z,9.63
2022-10-19T05:12:49.117Z,9.63
2022-10-19T05:13:49.091Z,9.64
2022-10-19T05:14:49.079Z,9.63
2022-10-19T05:15:49.071Z,9.66
2022-10-19T05:16:49.047Z,9.66
2022-10-19T05:17:49.076Z,9.66
2022-10-19T05:18:49.046Z,9.66
2022-10-19T05:19:49.018Z,9.66
2022-10-19T05:20:49.022Z,9.64
2022-10-19T05:21:49.010Z,9.64
2022-10-19T05:22:48.964Z,9.66
2022-10-19T05:23:48.970Z,9.66
2022-10-19T05:24:48.982Z,9.66
2022-10-19T05:25:48.944Z,9.64
2022-10-19T05:26:48.936Z,9.64
2022-10-19T05:27:48.916Z,9.64
2022-10-19T05:28:48.956Z,9.66
2022-10-19T05:29:48.912Z,9.64
2022-10-19T05:30:49.145Z,9.66
2022-10-19T05:31:48.852Z,9.66
2022-10-19T05:32:48.855Z,9.67
2022-10-19T05:33:48.828Z,9.67
2022-10-19T05:34:48.816Z,9.68
2022-10-19T05:35:48.836Z,9.67
2022-10-19T05:36:48.792Z,9.70
2022-10-19T05:37:48.763Z,9.70
2022-10-19T05:38:48.787Z,9.70
2022-10-19T05:39:48.759Z,9.71
2022-10-19T05:40:52.946Z,9.71
2022-10-19T05:41:49.814Z,9.71
2022-10-19T05:42:48.706Z,9.73
2022-10-19T05:43:48.674Z,9.71
2022-10-19T05:44:48.689Z,9.71
2022-10-19T05:45:48.660Z,9.71
2022-10-19T05:46:48.645Z,9.71
2022-10-19T05:47:48.675Z,9.71
2022-10-19T05:48:48.626Z,9.71
2022-10-19T05:49:48.597Z,9.73
2022-10-19T05:50:48.618Z,9.71
2022-10-19T05:51:48.567Z,9.70
2022-10-19T05:52:48.571Z,9.70
2022-10-19T05:53:48.681Z,9.68
2022-10-19T05:54:48.538Z,9.67
2022-10-19T05:55:48.523Z,9.66
2022-10-19T05:56:48.533Z,9.67
2022-10-19T05:57:48.511Z,9.68
2022-10-19T05:58:48.479Z,9.68
2022-10-19T05:59:48.505Z,9.68
2022-10-19T06:00:48.453Z,9.67
2022-10-19T06:01:48.479Z,9.68
2022-10-19T06:02:48.439Z,9.70
2022-10-19T06:03:48.411Z,9.73
2022-10-19T06:04:48.425Z,9.71
2022-10-19T06:05:48.435Z,9.73
2022-10-19T06:06:48.362Z,9.73
2022-10-19T06:07:48.373Z,9.75
2022-10-19T06:08:48.351Z,9.71
2022-10-19T06:09:48.324Z,9.75
2022-10-19T06:10:48.341Z,9.76
2022-10-19T06:11:48.456Z,9.76
2022-10-19T06:12:48.293Z,9.78
2022-10-19T06:13:48.271Z,9.78
2022-10-19T06:14:48.275Z,9.78
2022-10-19T06:15:48.248Z,9.78
2022-10-19T06:16:48.238Z,9.78
2022-10-19T06:17:48.366Z,9.78
2022-10-19T06:18:48.216Z,9.78
2022-10-19T06:19:48.227Z,9.76
2022-10-19T06:20:48.332Z,9.78
2022-10-19T06:21:48.166Z,9.78
2022-10-19T06:22:48.166Z,9.78
2022-10-19T06:23:48.263Z,9.79
2022-10-19T06:24:48.139Z,9.81
2022-10-19T06:25:48.128Z,9.83
2022-10-19T06:26:48.110Z,9.83
2022-10-19T06:27:48.114Z,9.83
2022-10-19T06:28:48.076Z,9.85
2022-10-19T06:29:48.092Z,9.85
2022-10-19T06:30:48.108Z,9.85
2022-10-19T06:31:48.041Z,9.83
2022-10-19T06:32:48.040Z,9.85
2022-10-19T06:33:49.454Z,9.85
2022-10-19T06:34:48.824Z,9.85
2022-10-19T06:35:48.096Z,9.86
2022-10-19T06:36:47.985Z,9.88
2022-10-19T06:37:47.964Z,9.86
2022-10-19T06:38:47.971Z,9.89
2022-10-19T06:39:47.979Z,9.94
2022-10-19T06:40:47.891Z,10.00
2022-10-19T06:41:48.000Z,10.03
2022-10-19T06:42:47.895Z,10.04
2022-10-19T06:43:47.880Z,10.07
2022-10-19T06:44:47.846Z,10.12
2022-10-19T06:45:47.859Z,10.18
2022-10-19T06:46:47.850Z,10.22
2022-10-19T06:48:47.816Z,10.37
2022-10-19T06:49:47.809Z,10.42
2022-10-19T06:50:47.775Z,10.44
2022-10-19T06:51:47.778Z,10.51
2022-10-19T06:52:47.741Z,10.55
2022-10-19T06:53:48.940Z,10.56
2022-10-19T06:54:47.730Z,10.58
2022-10-19T06:55:47.748Z,10.60
2022-10-19T06:56:47.720Z,10.59
2022-10-19T06:57:47.716Z,10.65
2022-10-19T06:58:47.668Z,10.68
2022-10-19T06:59:50.170Z,10.73
2022-10-19T07:00:48.674Z,10.77
2022-10-19T07:01:47.649Z,10.84
2022-10-19T07:02:47.606Z,10.89
2022-10-19T07:03:47.611Z,10.94
2022-10-19T07:04:47.580Z,10.95
2022-10-19T07:05:47.608Z,11.03
2022-10-19T07:06:47.565Z,11.07
2022-10-19T07:07:47.571Z,11.11
2022-10-19T07:08:47.558Z,11.17
2022-10-19T07:09:47.540Z,11.20
2022-10-19T07:10:47.509Z,11.25
2022-10-19T07:11:47.636Z,11.29
2022-10-19T07:12:47.489Z,11.34
2022-10-19T07:13:47.470Z,11.41
2022-10-19T07:14:47.474Z,11.43
2022-10-19T07:15:47.442Z,11.44
2022-10-19T07:16:47.433Z,11.49
2022-10-19T07:17:47.535Z,11.53
2022-10-19T07:18:47.401Z,11.54
2022-10-19T07:19:47.402Z,11.59
2022-10-19T07:20:47.381Z,11.59
2022-10-19T07:21:47.363Z,11.61
2022-10-19T07:22:47.357Z,11.64
2022-10-19T07:23:47.491Z,11.64
2022-10-19T07:24:47.327Z,11.65
2022-10-19T07:25:47.324Z,11.56
2022-10-19T07:26:47.286Z,11.57
2022-10-19T07:27:47.297Z,11.61
2022-10-19T07:28:47.265Z,11.65
2022-10-19T07:29:47.364Z,11.70
2022-10-19T07:30:47.249Z,11.74
2022-10-19T07:31:47.240Z,11.78
2022-10-19T07:32:47.314Z,11.80
2022-10-19T07:33:47.207Z,11.82
2022-10-19T07:34:47.202Z,11.85
2022-10-19T07:35:47.294Z,11.87
2022-10-19T07:36:47.163Z,11.87
2022-10-19T07:37:47.160Z,11.87
2022-10-19T07:38:47.130Z,11.87
2022-10-19T07:39:47.132Z,11.90
2022-10-19T07:40:47.604Z,11.96
2022-10-19T07:41:47.119Z,11.96
2022-10-19T07:42:47.091Z,11.97
2022-10-19T07:43:47.076Z,12.01
2022-10-19T07:44:47.063Z,12.05
2022-10-19T07:45:47.076Z,12.09
2022-10-19T07:46:47.010Z,12.12
2022-10-19T07:47:47.131Z,12.19
2022-10-19T07:48:47.006Z,12.12
2022-10-19T07:49:47.008Z,12.16
2022-10-19T07:50:46.961Z,12.21
2022-10-19T07:51:46.975Z,12.27
2022-10-19T07:52:46.953Z,12.29
2022-10-19T07:53:46.945Z,12.31
2022-10-19T07:54:46.935Z,12.33
2022-10-19T07:55:46.908Z,12.33
2022-10-19T07:56:46.910Z,12.38
2022-10-19T07:57:47.136Z,12.41
2022-10-19T07:58:46.853Z,12.42
2022-10-19T07:59:46.894Z,12.39
2022-10-19T08:00:46.825Z,12.41
2022-10-19T08:01:46.867Z,12.41
2022-10-19T08:03:05.112Z,12.42
2022-10-19T08:05:00.217Z,12.44
2022-10-19T08:05:47.756Z,12.45
2022-10-19T08:06:46.747Z,12.42
2022-10-19T08:07:46.731Z,12.42
2022-10-19T08:08:46.788Z,12.48
2022-10-19T08:09:54.497Z,12.42
2022-10-19T08:10:47.727Z,12.44
2022-10-19T08:11:46.693Z,12.51
2022-10-19T08:12:46.658Z,12.54
2022-10-19T08:13:46.640Z,12.45
2022-10-19T08:14:46.664Z,12.48
2022-10-19T08:15:46.621Z,12.48
2022-10-19T08:16:46.751Z,12.48
2022-10-19T08:17:46.605Z,12.46
2022-10-19T08:18:46.583Z,12.48
2022-10-19T08:19:46.587Z,12.48
2022-10-19T08:20:46.547Z,12.49
2022-10-19T08:21:46.561Z,12.51
2022-10-19T08:22:46.646Z,12.51
2022-10-19T08:23:46.532Z,12.49
2022-10-19T08:24:46.517Z,12.56
2022-10-19T08:25:46.504Z,12.57
2022-10-19T08:26:46.483Z,12.62
2022-10-19T08:27:46.466Z,12.66
2022-10-19T08:28:46.553Z,12.67
2022-10-19T08:29:46.431Z,12.69
2022-10-19T08:30:46.438Z,12.71
2022-10-19T08:31:46.413Z,12.67
2022-10-19T08:32:46.397Z,12.71
2022-10-19T08:33:46.397Z,12.77
2022-10-19T08:34:46.376Z,12.75
2022-10-19T08:35:46.358Z,12.77
2022-10-19T08:36:46.358Z,12.77
2022-10-19T08:37:46.590Z,12.75
2022-10-19T08:38:46.327Z,12.77
2022-10-19T08:39:46.339Z,12.75
2022-10-19T08:40:46.296Z,12.77
2022-10-19T08:41:46.266Z,12.74
2022-10-19T08:42:46.262Z,12.71
2022-10-19T08:43:46.235Z,12.70
2022-10-19T08:44:46.235Z,12.74
2022-10-19T08:45:46.233Z,12.78
2022-10-19T08:46:46.223Z,12.77
2022-10-19T08:47:46.201Z,12.77
2022-10-19T08:48:46.161Z,12.79
2022-10-19T08:49:46.170Z,12.71
2022-10-19T08:50:46.164Z,12.77
2022-10-19T08:51:46.162Z,12.82
2022-10-19T08:52:46.258Z,12.85
2022-10-19T08:53:46.097Z,12.92
2022-10-19T08:55:46.081Z,12.96
2022-10-19T08:56:51.079Z,12.93
2022-10-19T08:57:47.183Z,12.88
2022-10-19T08:58:46.052Z,12.92
2022-10-19T08:59:46.037Z,12.96
2022-10-19T09:00:46.013Z,12.99
2022-10-19T09:01:46.003Z,12.93
2022-10-19T09:02:45.994Z,12.93
2022-10-19T09:04:01.303Z,12.89
2022-10-19T09:04:46.978Z,12.95
2022-10-19T09:05:45.957Z,12.89
2022-10-19T09:06:45.924Z,12.88
2022-10-19T09:07:45.919Z,12.89
2022-10-19T09:08:45.970Z,12.95
2022-10-19T09:10:45.866Z,12.92
2022-10-19T09:11:45.879Z,12.95
2022-10-19T09:12:45.872Z,12.97
2022-10-19T09:14:04.112Z,12.99
2022-10-19T09:14:46.951Z,12.96
2022-10-19T09:15:45.800Z,13.00
2022-10-19T09:16:45.814Z,13.03
2022-10-19T09:17:45.799Z,13.09
2022-10-19T09:18:45.788Z,13.17
2022-10-19T09:19:45.780Z,13.22
2022-10-19T09:20:45.770Z,13.30
2022-10-19T09:21:47.640Z,13.25
2022-10-19T09:22:45.754Z,13.24
2022-10-19T09:23:45.699Z,13.20
2022-10-19T09:24:45.699Z,13.17
2022-10-19T09:25:45.683Z,13.15
2022-10-19T09:26:45.680Z,13.17
2022-10-19T09:27:45.663Z,13.22
2022-10-19T09:28:45.636Z,13.27
2022-10-19T09:29:45.635Z,13.38
2022-10-19T09:30:45.613Z,13.47
2022-10-19T09:31:45.646Z,13.52
2022-10-19T09:32:45.702Z,13.51
2022-10-19T09:33:45.576Z,13.55
2022-10-19T09:34:45.543Z,13.55
2022-10-19T09:35:45.565Z,13.56
2022-10-19T09:36:50.616Z,13.59
2022-10-19T09:37:46.636Z,13.61
2022-10-19T09:38:45.498Z,13.65
2022-10-19T09:39:52.436Z,13.61
2022-10-19T09:40:46.466Z,13.65
2022-10-19T09:41:45.473Z,13.65
2022-10-19T09:42:45.468Z,13.65
2022-10-19T09:43:45.550Z,13.65
2022-10-19T09:44:45.449Z,13.65
2022-10-19T09:45:45.420Z,13.59
2022-10-19T09:47:45.390Z,13.73
2022-10-19T09:48:45.368Z,13.79
2022-10-19T09:49:45.417Z,13.81
2022-10-19T09:50:45.344Z,13.91
2022-10-19T09:51:45.319Z,13.96
2022-10-19T09:52:45.319Z,13.98
2022-10-19T09:53:45.313Z,13.96
2022-10-19T09:54:45.291Z,13.98
2022-10-19T09:55:45.332Z,13.89
2022-10-19T09:56:45.421Z,13.94
2022-10-19T09:57:45.273Z,13.91
2022-10-19T09:58:45.241Z,13.91
2022-10-19T09:59:45.235Z,13.88
2022-10-19T10:00:45.205Z,13.89
2022-10-19T10:01:45.241Z,13.95
2022-10-19T10:03:45.163Z,13.94
2022-10-19T10:04:45.156Z,13.91
2022-10-19T10:05:45.237Z,13.88
2022-10-19T10:06:45.106Z,13.95
2022-10-19T10:07:45.237Z,13.98
2022-10-19T10:08:45.167Z,14.04
2022-10-19T10:09:45.076Z,14.06
2022-10-19T10:10:45.099Z,14.17
2022-10-19T10:11:45.127Z,14.16
2022-10-19T10:12:45.050Z,14.27
2022-10-19T10:13:45.059Z,14.28
2022-10-19T10:14:45.029Z,14.31
2022-10-19T10:15:45.016Z,14.31
2022-10-19T10:16:44.993Z,14.37
2022-10-19T10:17:45.000Z,14.44
2022-10-19T10:18:44.942Z,14.53
2022-10-19T10:19:45.080Z,14.57
2022-10-19T10:20:44.991Z,14.56
2022-10-19T10:21:44.910Z,14.54
2022-10-19T10:22:44.903Z,14.43
2022-10-19T10:23:44.891Z,14.42
2022-10-19T10:24:44.874Z,14.35
2022-10-19T10:25:44.912Z,14.37
2022-10-19T10:26:44.840Z,14.38
2022-10-19T10:27:44.845Z,14.38
2022-10-19T10:28:44.820Z,14.43
2022-10-19T10:29:44.825Z,14.46
2022-10-19T10:30:44.804Z,14.49
2022-10-19T10:31:44.801Z,14.50
2022-10-19T10:32:47.279Z,14.50
2022-10-19T10:33:45.574Z,14.53
2022-10-19T10:34:50.616Z,14.50
2022-10-19T10:35:45.743Z,14.39
2022-10-19T10:36:44.714Z,14.32
2022-10-19T10:37:44.825Z,14.31
2022-10-19T10:38:44.687Z,14.29
2022-10-19T10:39:44.665Z,14.32
2022-10-19T10:40:44.670Z,14.31
2022-10-19T10:41:44.657Z,14.38
2022-10-19T10:42:44.636Z,14.43
2022-10-19T10:43:44.743Z,14.46
2022-10-19T10:44:44.611Z,14.47
2022-10-19T10:45:44.608Z,14.47
2022-10-19T10:46:44.567Z,14.37
2022-10-19T10:47:44.576Z,14.37
2022-10-19T10:48:44.555Z,14.39
2022-10-19T10:49:44.557Z,14.47
2022-10-19T10:50:44.551Z,14.49
2022-10-19T10:51:47.120Z,14.44
2022-10-19T10:52:44.513Z,14.46
2022-10-19T10:53:44.503Z,14.37
2022-10-19T10:54:44.452Z,14.32
2022-10-19T10:55:44.481Z,14.25
2022-10-19T10:56:44.435Z,14.21
2022-10-19T10:57:44.419Z,14.28
2022-10-19T10:58:44.414Z,14.38
2022-10-19T10:59:45.642Z,14.50
2022-10-19T11:00:44.377Z,14.67
2022-10-19T11:01:44.442Z,14.84
2022-10-19T11:02:44.375Z,14.98
2022-10-19T11:03:44.333Z,15.06
2022-10-19T11:04:47.381Z,15.21
2022-10-19T11:05:45.321Z,15.30
2022-10-19T11:06:44.789Z,15.35
2022-10-19T11:07:44.336Z,15.39
2022-10-19T11:08:44.339Z,15.35
2022-10-19T11:09:44.256Z,15.21
2022-10-19T11:10:44.249Z,15.12
2022-10-19T11:11:44.227Z,15.11
2022-10-19T11:12:44.258Z,15.13
2022-10-19T11:13:44.260Z,15.08
2022-10-19T11:14:46.937Z,15.11
2022-10-19T11:15:44.170Z,15.02
2022-10-19T11:16:44.190Z,14.95
2022-10-19T11:17:44.166Z,14.94
2022-10-19T11:18:44.162Z,14.81
2022-10-19T11:19:44.162Z,14.75
2022-10-19T11:20:44.112Z,14.78
2022-10-19T11:21:44.118Z,14.84
2022-10-19T11:22:44.117Z,14.93
2022-10-19T11:23:44.073Z,14.78
2022-10-19T11:24:46.462Z,14.67
2022-10-19T11:25:44.084Z,14.65
2022-10-19T11:26:44.027Z,14.64
2022-10-19T11:27:44.022Z,14.53
2022-10-19T11:28:43.993Z,14.50
2022-10-19T11:29:43.993Z,14.50
2022-10-19T11:30:46.251Z,14.43
2022-10-19T11:31:44.076Z,14.38
2022-10-19T11:32:46.036Z,14.42
2022-10-19T11:33:44.000Z,14.39
2022-10-19T11:34:43.922Z,14.43
2022-10-19T11:35:43.944Z,14.38
2022-10-19T11:36:43.916Z,14.46
2022-10-19T11:37:50.215Z,14.54
2022-10-19T11:38:44.871Z,14.64
2022-10-19T11:39:43.862Z,14.75
2022-10-19T11:40:54.284Z,14.74
2022-10-19T11:41:44.842Z,14.75
2022-10-19T11:42:43.827Z,14.71
2022-10-19T11:43:43.930Z,14.65
2022-10-19T11:44:43.792Z,14.54
2022-10-19T11:45:43.765Z,14.42
2022-10-19T11:46:43.763Z,14.28
2022-10-19T11:47:43.751Z,14.20
2022-10-19T11:48:44.014Z,14.13
2022-10-19T11:49:43.829Z,14.04
2022-10-19T11:50:46.751Z,13.91
2022-10-19T11:51:44.813Z,13.91
2022-10-19T11:52:43.692Z,13.96
2022-10-19T11:53:43.675Z,14.06
2022-10-19T11:54:43.663Z,14.09
2022-10-19T11:55:43.700Z,14.13
2022-10-19T11:57:01.674Z,14.10
2022-10-19T11:57:44.612Z,14.06
2022-10-19T11:58:43.624Z,14.06
2022-10-19T11:59:43.583Z,13.98
2022-10-19T12:00:43.586Z,13.87
2022-10-19T12:01:43.759Z,13.81
2022-10-19T12:02:43.535Z,13.76
2022-10-19T12:03:43.528Z,13.76
2022-10-19T12:04:43.522Z,13.71
2022-10-19T12:05:43.502Z,13.71
2022-10-19T12:06:43.485Z,13.65
2022-10-19T12:07:43.505Z,13.71
2022-10-19T12:08:43.523Z,13.79
2022-10-19T12:09:43.436Z,13.89
2022-10-19T12:10:43.447Z,13.98
2022-10-19T12:11:43.427Z,14.09
2022-10-19T12:12:43.411Z,14.17
2022-10-19T12:13:43.412Z,14.27
2022-10-19T12:14:43.368Z,14.32
2022-10-19T12:15:43.354Z,14.32
2022-10-19T12:16:43.344Z,14.29
2022-10-19T12:17:43.326Z,14.34
2022-10-19T12:18:43.334Z,14.37
2022-10-19T12:19:43.430Z,14.38
2022-10-19T12:20:43.292Z,14.43
2022-10-19T12:21:43.278Z,14.50
2022-10-19T12:22:43.285Z,14.53
2022-10-19T12:23:43.269Z,14.67
2022-10-19T12:24:43.258Z,14.80
2022-10-19T12:25:43.352Z,14.90
2022-10-19T12:26:43.223Z,15.01
2022-10-19T12:27:43.198Z,15.01
2022-10-19T12:28:43.178Z,15.09
2022-10-19T12:29:43.180Z,15.09
2022-10-19T12:30:43.168Z,15.15
2022-10-19T12:31:43.166Z,15.24
2022-10-19T12:32:43.149Z,15.33
2022-10-19T12:33:43.124Z,15.24
2022-10-19T12:34:43.099Z,15.05
2022-10-19T12:35:43.107Z,14.99
2022-10-19T12:36:43.075Z,14.93
2022-10-19T12:37:43.193Z,14.80
2022-10-19T12:38:45.965Z,14.74
2022-10-19T12:39:43.024Z,14.68
2022-10-19T12:40:43.014Z,14.50
2022-10-19T12:41:42.995Z,14.38
2022-10-19T12:42:42.989Z,14.32
2022-10-19T12:43:43.014Z,14.31
2022-10-19T12:44:42.964Z,14.28
2022-10-19T12:45:42.945Z,14.25
2022-10-19T12:46:42.962Z,14.19
2022-10-19T12:47:42.910Z,14.10
2022-10-19T12:48:42.919Z,13.99
2022-10-19T12:49:42.945Z,14.02
2022-10-19T12:50:42.917Z,14.04
2022-10-19T12:51:42.884Z,14.02
2022-10-19T12:52:42.859Z,13.99
2022-10-19T12:53:42.849Z,13.95
2022-10-19T12:54:42.825Z,13.96
2022-10-19T12:55:44.950Z,13.96
2022-10-19T12:56:42.815Z,13.92
2022-10-19T12:57:42.787Z,13.89
2022-10-19T12:58:46.795Z,13.88
2022-10-19T12:59:43.748Z,13.91
2022-10-19T13:00:42.852Z,13.96
2022-10-19T13:01:42.875Z,13.95
2022-10-19T13:02:42.767Z,13.95
2022-10-19T13:03:42.710Z,13.94
2022-10-19T13:04:42.720Z,13.92
2022-10-19T13:05:42.687Z,13.91
2022-10-19T13:06:42.678Z,13.89
2022-10-19T13:07:42.805Z,13.88
2022-10-19T13:08:42.741Z,13.88
2022-10-19T13:09:42.612Z,13.91
2022-10-19T13:10:42.636Z,13.98
2022-10-19T13:11:42.583Z,14.02
2022-10-19T13:12:42.617Z,14.07
2022-10-19T13:13:42.648Z,14.12
2022-10-19T13:14:42.552Z,14.09
2022-10-19T13:15:42.544Z,14.09